createdAt,value
2022-10-18T00:00:01.054Z,26.20
2022-10-18T00:00:32.532Z,26.21
2022-10-18T00:01:03.926Z,26.20
2022-10-18T00:01:35.357Z,26.18
2022-10-18T00:02:06.864Z,26.19
2022-10-18T00:02:38.296Z,26.18
2022-10-18T00:03:09.674Z,26.18
2022-10-18T00:04:17.329Z,26.19
2022-10-18T00:04:48.736Z,26.18
2022-10-18T00:05:20.144Z,26.18
2022-10-18T00:05:51.593Z,26.17
2022-10-18T00:06:23.049Z,26.17
2022-10-18T00:06:54.473Z,26.19
2022-10-18T00:07:25.921Z,26.18
2022-10-18T00:07:57.354Z,26.17
2022-10-18T00:08:28.805Z,26.17
2022-10-18T00:09:00.256Z,26.18
2022-10-18T00:09:31.752Z,26.18
2022-10-18T00:10:03.213Z,26.18
2022-10-18T00:10:34.665Z,26.17
2022-10-18T00:11:06.156Z,26.17
2022-10-18T00:11:37.537Z,26.18
2022-10-18T00:12:08.979Z,26.17
2022-10-18T00:12:40.466Z,26.17
2022-10-18T00:13:11.944Z,26.16
2022-10-18T00:13:43.359Z,26.17
2022-10-18T00:14:14.824Z,26.16
2022-10-18T00:14:46.203Z,26.15
2022-10-18T00:15:17.631Z,26.15
2022-10-18T00:15:49.114Z,26.16
2022-10-18T00:16:20.583Z,26.14
2022-10-18T00:16:52.046Z,26.15
2022-10-18T00:17:23.511Z,26.15
2022-10-18T00:17:54.925Z,26.15
2022-10-18T00:18:26.454Z,26.15
2022-10-18T00:18:57.962Z,26.15
2022-10-18T00:19:29.610Z,26.16
2022-10-18T00:20:01.216Z,26.15
2022-10-18T00:20:32.793Z,26.15
2022-10-18T00:21:04.318Z,26.15
2022-10-18T00:21:35.839Z,26.14
2022-10-18T00:22:07.379Z,26.14
2022-10-18T00:22:38.894Z,26.14
2022-10-18T00:23:10.339Z,26.14
2022-10-18T00:23:41.752Z,26.15
2022-10-18T00:24:13.137Z,26.14
2022-10-18T00:24:44.619Z,26.13
2022-10-18T00:25:16.110Z,26.14
2022-10-18T00:25:47.616Z,26.13
2022-10-18T00:26:19.042Z,26.13
2022-10-18T00:26:50.666Z,26.12
2022-10-18T00:27:22.084Z,26.13
2022-10-18T00:27:56.475Z,26.12
2022-10-18T00:28:27.957Z,26.13
2022-10-18T00:28:59.465Z,26.13
2022-10-18T00:29:30.922Z,26.13
2022-10-18T00:30:02.374Z,26.12
2022-10-18T00:30:33.781Z,26.12
2022-10-18T00:31:05.172Z,26.10
2022-10-18T00:31:36.570Z,26.11
2022-10-18T00:32:08.036Z,26.12
2022-10-18T00:32:39.443Z,26.12
2022-10-18T00:33:10.966Z,26.12
2022-10-18T00:33:42.381Z,26.12
2022-10-18T00:34:13.882Z,26.12
2022-10-18T00:34:45.343Z,26.11
2022-10-18T00:35:16.775Z,26.11
2022-10-18T00:35:48.320Z,26.11
2022-10-18T00:36:19.711Z,26.11
2022-10-18T00:36:51.176Z,26.11
2022-10-18T00:37:22.674Z,26.10
2022-10-18T00:37:54.073Z,26.09
2022-10-18T00:38:25.489Z,26.10
2022-10-18T00:38:56.887Z,26.10
2022-10-18T00:39:28.259Z,26.11
2022-10-18T00:39:59.703Z,26.11
2022-10-18T00:40:31.084Z,26.10
2022-10-18T00:41:02.551Z,26.10
2022-10-18T00:41:34.047Z,26.11
2022-10-18T00:42:05.588Z,26.10
2022-10-18T00:42:37.031Z,26.10
2022-10-18T00:43:08.582Z,26.09
2022-10-18T00:43:40.022Z,26.08
2022-10-18T00:44:11.481Z,26.08
2022-10-18T00:44:42.955Z,26.08
2022-10-18T00:45:14.403Z,26.09
2022-10-18T00:45:45.878Z,26.09
2022-10-18T00:46:17.292Z,26.09
2022-10-18T00:46:48.717Z,26.08
2022-10-18T00:47:20.176Z,26.08
2022-10-18T00:47:51.589Z,26.08
2022-10-18T00:48:23.016Z,26.08
2022-10-18T00:49:30.705Z,26.07
2022-10-18T00:50:02.142Z,26.07
2022-10-18T00:50:33.666Z,26.08
2022-10-18T00:51:05.074Z,26.08
2022-10-18T00:51:36.478Z,26.08
2022-10-18T00:52:07.929Z,26.07
2022-10-18T00:52:39.362Z,26.07
2022-10-18T00:53:10.791Z,26.07
2022-10-18T00:53:42.225Z,26.07
2022-10-18T00:54:13.678Z,26.08
2022-10-18T00:54:45.158Z,26.06
2022-10-18T00:55:16.509Z,26.07
2022-10-18T00:55:47.931Z,26.07
2022-10-18T00:56:19.424Z,26.07
2022-10-18T00:56:50.832Z,26.07
2022-10-18T00:57:22.263Z,26.08
2022-10-18T00:58:26.048Z,26.06
2022-10-18T00:58:57.552Z,26.06
2022-10-18T00:59:28.943Z,26.06
2022-10-18T01:00:00.389Z,26.06
2022-10-18T01:00:31.803Z,26.07
2022-10-18T01:01:03.348Z,26.06
2022-10-18T01:01:34.910Z,26.06
2022-10-18T01:02:06.430Z,26.06
2022-10-18T01:02:37.905Z,26.05
2022-10-18T01:03:09.341Z,26.06
2022-10-18T01:03:40.796Z,26.06
2022-10-18T01:04:12.210Z,26.04
2022-10-18T01:04:43.621Z,26.04
2022-10-18T01:05:15.093Z,26.06
2022-10-18T01:05:46.513Z,26.04
2022-10-18T01:06:17.925Z,26.04
2022-10-18T01:06:49.429Z,26.05
2022-10-18T01:07:20.819Z,26.04
2022-10-18T01:07:52.237Z,26.04
2022-10-18T01:08:23.744Z,26.04
2022-10-18T01:08:55.179Z,26.04
2022-10-18T01:09:26.624Z,26.04
2022-10-18T01:09:58.000Z,26.04
2022-10-18T01:10:29.422Z,26.04
2022-10-18T01:11:00.968Z,26.04
2022-10-18T01:11:32.466Z,26.05
2022-10-18T01:12:03.856Z,26.03
2022-10-18T01:12:35.326Z,26.03
2022-10-18T01:13:06.722Z,26.03
2022-10-18T01:13:38.288Z,26.04
2022-10-18T01:14:09.704Z,26.03
2022-10-18T01:14:41.122Z,26.03
2022-10-18T01:15:12.554Z,26.03
2022-10-18T01:15:44.081Z,26.03
2022-10-18T01:16:15.493Z,26.03
2022-10-18T01:16:46.996Z,26.03
2022-10-18T01:17:18.402Z,26.03
2022-10-18T01:17:49.844Z,26.03
2022-10-18T01:18:21.297Z,26.03
2022-10-18T01:18:52.749Z,26.04
2022-10-18T01:19:24.156Z,26.04
2022-10-18T01:19:55.608Z,26.03
2022-10-18T01:20:27.050Z,26.03
2022-10-18T01:20:58.469Z,26.03
2022-10-18T01:21:30.021Z,26.02
2022-10-18T01:22:01.447Z,26.02
2022-10-18T01:22:33.137Z,26.02
2022-10-18T01:23:04.603Z,26.02
2022-10-18T01:23:36.239Z,26.02
2022-10-18T01:24:07.710Z,26.01
2022-10-18T01:24:39.200Z,26.02
2022-10-18T01:25:10.603Z,26.02
2022-10-18T01:25:42.034Z,26.01
2022-10-18T01:26:13.505Z,26.02
2022-10-18T01:26:44.973Z,26.01
2022-10-18T01:27:16.377Z,26.01
2022-10-18T01:27:47.867Z,26.02
2022-10-18T01:28:19.337Z,26.01
2022-10-18T01:28:50.866Z,26.00
2022-10-18T01:29:22.395Z,26.00
2022-10-18T01:29:53.902Z,26.01
2022-10-18T01:30:25.324Z,26.01
2022-10-18T01:30:56.790Z,26.00
2022-10-18T01:31:28.274Z,26.01
2022-10-18T01:31:59.739Z,26.01
2022-10-18T01:32:31.263Z,26.01
2022-10-18T01:33:02.680Z,26.01
2022-10-18T01:33:34.098Z,26.01
2022-10-18T01:34:05.564Z,26.01
2022-10-18T01:34:37.018Z,25.99
2022-10-18T01:35:08.603Z,26.00
2022-10-18T01:35:40.038Z,25.99
2022-10-18T01:36:11.493Z,25.99
2022-10-18T01:36:43.011Z,25.99
2022-10-18T01:37:14.597Z,25.99
2022-10-18T01:37:46.126Z,25.99
2022-10-18T01:38:17.513Z,25.99
2022-10-18T01:38:48.990Z,25.98
2022-10-18T01:39:20.456Z,25.99
2022-10-18T01:39:51.926Z,25.99
2022-10-18T01:40:23.330Z,25.99
2022-10-18T01:40:54.750Z,25.99
2022-10-18T01:41:26.141Z,25.99
2022-10-18T01:41:57.628Z,25.99
2022-10-18T01:42:29.040Z,26.00
2022-10-18T01:43:00.471Z,25.99
2022-10-18T01:43:31.967Z,25.99
2022-10-18T01:44:03.451Z,25.98
2022-10-18T01:44:34.919Z,25.98
2022-10-18T01:45:06.354Z,25.99
2022-10-18T01:45:37.794Z,25.98
2022-10-18T01:46:09.207Z,25.99
2022-10-18T01:46:40.712Z,25.99
2022-10-18T01:47:12.268Z,25.99
2022-10-18T01:47:43.683Z,25.99
2022-10-18T01:48:15.066Z,25.99
2022-10-18T01:48:46.489Z,25.99
2022-10-18T01:49:17.913Z,25.99
2022-10-18T01:49:49.301Z,26.00
2022-10-18T01:50:20.685Z,26.00
2022-10-18T01:50:52.194Z,26.00
2022-10-18T01:51:23.675Z,25.98
2022-10-18T01:51:55.455Z,25.99
2022-10-18T01:52:26.955Z,25.99
2022-10-18T01:52:58.350Z,25.99
2022-10-18T01:53:29.774Z,25.99
2022-10-18T01:54:01.180Z,25.99
2022-10-18T01:54:32.550Z,25.99
2022-10-18T01:55:03.970Z,25.99
2022-10-18T01:55:35.383Z,25.97
2022-10-18T01:56:06.837Z,25.98
2022-10-18T01:56:38.287Z,25.98
2022-10-18T01:57:09.690Z,25.98
2022-10-18T01:57:41.231Z,25.98
2022-10-18T01:58:12.755Z,25.99
2022-10-18T01:58:44.229Z,25.99
2022-10-18T01:59:15.669Z,25.99
2022-10-18T01:59:47.211Z,26.00
2022-10-18T02:00:18.616Z,25.99
2022-10-18T02:00:50.153Z,25.98
2022-10-18T02:01:21.555Z,25.98
2022-10-18T02:01:52.953Z,25.98
2022-10-18T02:02:24.557Z,25.99
2022-10-18T02:02:56.032Z,25.99
2022-10-18T02:03:27.520Z,25.98
2022-10-18T02:03:58.975Z,25.99
2022-10-18T02:04:30.451Z,25.98
2022-10-18T02:05:01.883Z,25.98
2022-10-18T02:05:33.333Z,25.97
2022-10-18T02:06:04.730Z,25.97
2022-10-18T02:06:36.166Z,25.97
2022-10-18T02:07:07.596Z,25.98
2022-10-18T02:07:39.044Z,25.98
2022-10-18T02:08:22.814Z,25.96
2022-10-18T02:08:54.968Z,25.97
2022-10-18T02:09:26.360Z,25.96
2022-10-18T02:09:57.770Z,25.96
2022-10-18T02:10:29.269Z,25.97
2022-10-18T02:11:00.689Z,25.96
2022-10-18T02:11:32.085Z,25.96
2022-10-18T02:12:03.542Z,25.96
2022-10-18T02:12:35.022Z,25.97
2022-10-18T02:13:06.438Z,25.96
2022-10-18T02:13:37.934Z,25.97
2022-10-18T02:14:09.328Z,25.97
2022-10-18T02:14:40.691Z,25.95
2022-10-18T02:15:12.112Z,25.97
2022-10-18T02:15:43.493Z,25.97
2022-10-18T02:16:14.997Z,25.96
2022-10-18T02:16:46.401Z,25.97
2022-10-18T02:17:17.881Z,25.97
2022-10-18T02:17:49.326Z,25.96
2022-10-18T02:18:20.730Z,25.96
2022-10-18T02:18:52.182Z,25.96
2022-10-18T02:19:59.901Z,25.96
2022-10-18T02:20:31.353Z,25.96
2022-10-18T02:21:02.808Z,25.96
2022-10-18T02:21:34.250Z,25.95
2022-10-18T02:22:05.688Z,25.95
2022-10-18T02:22:37.231Z,25.96
2022-10-18T02:23:08.684Z,25.96
2022-10-18T02:23:40.082Z,25.96
2022-10-18T02:24:11.630Z,25.96
2022-10-18T02:24:43.076Z,25.95
2022-10-18T02:25:14.485Z,25.96
2022-10-18T02:25:45.896Z,25.95
2022-10-18T02:26:17.348Z,25.96
2022-10-18T02:26:48.795Z,25.95
2022-10-18T02:27:20.198Z,25.93
2022-10-18T02:27:51.665Z,25.94
2022-10-18T02:28:59.334Z,25.93
2022-10-18T02:29:30.807Z,25.94
2022-10-18T02:30:02.217Z,25.95
2022-10-18T02:30:33.851Z,25.95
2022-10-18T02:31:05.318Z,25.95
2022-10-18T02:31:36.788Z,25.95
2022-10-18T02:32:08.202Z,25.95
2022-10-18T02:32:39.622Z,25.96
2022-10-18T02:33:11.057Z,25.94
2022-10-18T02:33:42.513Z,25.95
2022-10-18T02:34:13.981Z,25.94
2022-10-18T02:34:45.360Z,25.96
2022-10-18T02:35:16.765Z,25.95
2022-10-18T02:35:48.218Z,25.94
2022-10-18T02:36:19.686Z,25.94
2022-10-18T02:36:51.124Z,25.94
2022-10-18T02:37:22.544Z,25.93
2022-10-18T02:37:54.009Z,25.93
2022-10-18T02:38:25.437Z,25.93
2022-10-18T02:38:56.870Z,25.94
2022-10-18T02:39:28.307Z,25.93
2022-10-18T02:39:59.730Z,25.93
2022-10-18T02:40:31.135Z,25.93
2022-10-18T02:41:02.613Z,25.93
2022-10-18T02:41:34.052Z,25.93
2022-10-18T02:42:05.434Z,25.94
2022-10-18T02:42:36.828Z,25.94
2022-10-18T02:43:08.224Z,25.93
2022-10-18T02:43:39.628Z,25.95
2022-10-18T02:44:11.066Z,25.95
2022-10-18T02:44:42.613Z,25.94
2022-10-18T02:45:14.091Z,25.96
2022-10-18T02:45:45.530Z,25.95
2022-10-18T02:46:17.072Z,25.94
2022-10-18T02:46:48.649Z,25.94
2022-10-18T02:47:20.231Z,25.94
2022-10-18T02:47:51.778Z,25.93
2022-10-18T02:48:23.168Z,25.93
2022-10-18T02:48:54.587Z,25.93
2022-10-18T02:49:26.096Z,25.93
2022-10-18T02:49:57.549Z,25.93
2022-10-18T02:50:29.109Z,25.93
2022-10-18T02:51:00.635Z,25.94
2022-10-18T02:51:32.124Z,25.94
2022-10-18T02:52:03.668Z,25.93
2022-10-18T02:52:35.209Z,25.94
2022-10-18T02:53:06.729Z,25.93
2022-10-18T02:53:38.282Z,25.94
2022-10-18T02:54:09.821Z,25.93
2022-10-18T02:54:41.397Z,25.93
2022-10-18T02:55:12.880Z,25.93
2022-10-18T02:55:44.462Z,25.93
2022-10-18T02:56:15.907Z,25.93
2022-10-18T02:56:47.574Z,25.93
2022-10-18T02:57:19.107Z,25.93
2022-10-18T02:57:50.660Z,25.93
2022-10-18T02:58:22.198Z,25.94
2022-10-18T02:58:53.816Z,25.93
2022-10-18T02:59:25.291Z,25.94
2022-10-18T02:59:56.824Z,25.94
2022-10-18T03:00:28.465Z,25.94
2022-10-18T03:01:00.019Z,25.93
2022-10-18T03:01:31.557Z,25.94
2022-10-18T03:02:03.054Z,25.94
2022-10-18T03:02:34.504Z,25.93
2022-10-18T03:03:05.991Z,25.93
2022-10-18T03:03:37.395Z,25.93
2022-10-18T03:04:08.860Z,25.93
2022-10-18T03:04:40.276Z,25.94
2022-10-18T03:05:11.716Z,25.93
2022-10-18T03:05:43.103Z,25.92
2022-10-18T03:06:14.535Z,25.92
2022-10-18T03:06:45.999Z,25.92
2022-10-18T03:07:17.430Z,25.93
2022-10-18T03:07:48.927Z,25.92
2022-10-18T03:08:20.357Z,25.93
2022-10-18T03:08:51.784Z,25.92
2022-10-18T03:09:23.233Z,25.93
2022-10-18T03:09:54.647Z,25.94
2022-10-18T03:10:26.112Z,25.93
2022-10-18T03:10:57.485Z,25.92
2022-10-18T03:11:28.953Z,25.93
2022-10-18T03:12:00.366Z,25.93
2022-10-18T03:12:31.828Z,25.93
2022-10-18T03:13:03.240Z,25.94
2022-10-18T03:13:34.670Z,25.93
2022-10-18T03:14:06.095Z,25.92
2022-10-18T03:14:37.483Z,25.92
2022-10-18T03:15:08.891Z,25.92
2022-10-18T03:15:40.256Z,25.93
2022-10-18T03:16:11.673Z,25.93
2022-10-18T03:16:43.158Z,25.94
2022-10-18T03:17:14.578Z,25.93
2022-10-18T03:17:46.049Z,25.93
2022-10-18T03:18:17.457Z,25.92
2022-10-18T03:18:48.989Z,25.92
2022-10-18T03:19:20.388Z,25.92
2022-10-18T03:19:51.852Z,25.91
2022-10-18T03:20:23.283Z,25.91
2022-10-18T03:20:54.705Z,25.92
2022-10-18T03:21:26.160Z,25.91
2022-10-18T03:21:57.574Z,25.93
2022-10-18T03:23:05.272Z,25.91
2022-10-18T03:23:36.650Z,25.92
2022-10-18T03:24:08.132Z,25.93
2022-10-18T03:24:39.563Z,25.92
2022-10-18T03:25:10.980Z,25.92
2022-10-18T03:25:45.637Z,25.91
2022-10-18T03:26:17.932Z,25.91
2022-10-18T03:26:49.455Z,25.91
2022-10-18T03:27:20.882Z,25.92
2022-10-18T03:27:52.350Z,25.92
2022-10-18T03:28:23.871Z,25.91
2022-10-18T03:28:55.489Z,25.92
2022-10-18T03:29:26.985Z,25.91
2022-10-18T03:29:58.454Z,25.91
2022-10-18T03:30:29.844Z,25.92
2022-10-18T03:31:01.328Z,25.93
2022-10-18T03:31:32.700Z,25.91
2022-10-18T03:32:04.188Z,25.91
2022-10-18T03:32:35.729Z,25.91
2022-10-18T03:33:07.255Z,25.91
2022-10-18T03:33:38.685Z,25.91
2022-10-18T03:34:10.091Z,25.92
2022-10-18T03:34:41.475Z,25.91
2022-10-18T03:35:13.008Z,25.92
2022-10-18T03:35:44.398Z,25.92
2022-10-18T03:36:15.801Z,25.92
2022-10-18T03:36:47.306Z,25.92
2022-10-18T03:37:18.836Z,25.92
2022-10-18T03:37:50.256Z,25.92
2022-10-18T03:38:21.612Z,25.92
2022-10-18T03:38:53.077Z,25.92
2022-10-18T03:39:24.461Z,25.91
2022-10-18T03:39:55.921Z,25.92
2022-10-18T03:40:27.407Z,25.92
2022-10-18T03:40:58.906Z,25.92
2022-10-18T03:41:30.346Z,25.91
2022-10-18T03:42:01.774Z,25.92
2022-10-18T03:42:33.458Z,25.91
2022-10-18T03:43:05.145Z,25.92
2022-10-18T03:43:36.546Z,25.92
2022-10-18T03:44:07.959Z,25.92
2022-10-18T03:44:39.367Z,25.91
2022-10-18T03:45:10.788Z,25.92
2022-10-18T03:45:42.181Z,25.93
2022-10-18T03:46:13.602Z,25.92
2022-10-18T03:46:45.004Z,25.92
2022-10-18T03:47:16.454Z,25.93
2022-10-18T03:47:47.873Z,25.92
2022-10-18T03:48:19.327Z,25.92
2022-10-18T03:48:50.778Z,25.92
2022-10-18T03:49:22.298Z,25.92
2022-10-18T03:49:56.342Z,25.92
2022-10-18T03:50:28.751Z,25.92
2022-10-18T03:51:00.195Z,25.92
2022-10-18T03:51:31.706Z,25.91
2022-10-18T03:52:03.113Z,25.93
2022-10-18T03:52:34.727Z,25.92
2022-10-18T03:53:06.368Z,25.91
2022-10-18T03:53:37.802Z,25.92
2022-10-18T03:54:09.261Z,25.92
2022-10-18T03:54:40.706Z,25.93
2022-10-18T03:55:12.091Z,25.91
2022-10-18T03:55:43.513Z,25.92
2022-10-18T03:56:14.915Z,25.91
2022-10-18T03:56:46.309Z,25.91
2022-10-18T03:57:17.783Z,25.93
2022-10-18T03:57:49.204Z,25.93
2022-10-18T03:58:20.728Z,25.92
2022-10-18T03:58:52.189Z,25.91
2022-10-18T03:59:23.645Z,25.92
2022-10-18T03:59:55.065Z,25.92
2022-10-18T04:00:26.489Z,25.91
2022-10-18T04:00:57.904Z,25.92
2022-10-18T04:01:29.314Z,25.91
2022-10-18T04:02:00.841Z,25.93
2022-10-18T04:02:32.721Z,25.93
2022-10-18T04:03:04.259Z,25.92
2022-10-18T04:03:35.782Z,25.91
2022-10-18T04:04:07.205Z,25.91
2022-10-18T04:04:38.664Z,25.93
2022-10-18T04:05:10.146Z,25.92
2022-10-18T04:05:41.557Z,25.91
2022-10-18T04:06:12.997Z,25.91
2022-10-18T04:06:44.401Z,25.91
2022-10-18T04:07:15.888Z,25.92
2022-10-18T04:07:47.296Z,25.92
2022-10-18T04:08:18.756Z,25.92
2022-10-18T04:08:50.224Z,25.90
2022-10-18T04:09:21.669Z,25.91
2022-10-18T04:09:53.041Z,25.90
2022-10-18T04:10:24.447Z,25.91
2022-10-18T04:10:55.842Z,25.92
2022-10-18T04:11:27.305Z,25.91
2022-10-18T04:11:58.771Z,25.90
2022-10-18T04:12:30.442Z,25.92
2022-10-18T04:13:02.029Z,25.91
2022-10-18T04:13:33.414Z,25.91
2022-10-18T04:14:04.895Z,25.92
2022-10-18T04:14:36.266Z,25.92
2022-10-18T04:15:07.635Z,25.91
2022-10-18T04:15:39.094Z,25.91
2022-10-18T04:16:10.509Z,25.91
2022-10-18T04:16:41.944Z,25.91
2022-10-18T04:17:13.337Z,25.90
2022-10-18T04:17:44.713Z,25.90
2022-10-18T04:18:16.182Z,25.90
2022-10-18T04:18:47.630Z,25.91
2022-10-18T04:19:19.154Z,25.91
2022-10-18T04:19:50.552Z,25.91
2022-10-18T04:20:22.099Z,25.91
2022-10-18T04:20:53.546Z,25.91
2022-10-18T04:21:24.947Z,25.92
2022-10-18T04:21:56.343Z,25.91
2022-10-18T04:22:27.905Z,25.91
2022-10-18T04:22:59.364Z,25.92
2022-10-18T04:23:32.737Z,25.91
2022-10-18T04:24:06.614Z,25.90
2022-10-18T04:24:38.021Z,25.92
2022-10-18T04:25:09.478Z,25.92
2022-10-18T04:25:40.934Z,25.91
2022-10-18T04:26:12.371Z,25.92
2022-10-18T04:26:43.820Z,25.92
2022-10-18T04:27:15.204Z,25.93
2022-10-18T04:27:46.701Z,25.91
2022-10-18T04:28:18.135Z,25.92
2022-10-18T04:28:49.585Z,25.92
2022-10-18T04:29:21.077Z,25.92
2022-10-18T04:29:52.522Z,25.93
2022-10-18T04:30:23.901Z,25.93
2022-10-18T04:30:55.403Z,25.93
2022-10-18T04:31:26.829Z,25.93
2022-10-18T04:31:58.298Z,25.93
2022-10-18T04:32:29.687Z,25.92
2022-10-18T04:33:01.089Z,25.92
2022-10-18T04:33:32.494Z,25.92
2022-10-18T04:34:03.934Z,25.93
2022-10-18T04:34:35.413Z,25.93
2022-10-18T04:35:06.886Z,25.93
2022-10-18T04:35:38.332Z,25.93
2022-10-18T04:36:09.790Z,25.92
2022-10-18T04:36:41.225Z,25.92
2022-10-18T04:37:12.629Z,25.93
2022-10-18T04:37:44.050Z,25.92
2022-10-18T04:38:15.479Z,25.93
2022-10-18T04:38:46.966Z,25.93
2022-10-18T04:39:18.392Z,25.91
2022-10-18T04:39:52.790Z,25.92
2022-10-18T04:40:25.296Z,25.92
2022-10-18T04:40:56.743Z,25.92
2022-10-18T04:41:28.203Z,25.93
2022-10-18T04:41:59.705Z,25.93
2022-10-18T04:42:31.134Z,25.91
2022-10-18T04:43:02.632Z,25.91
2022-10-18T04:43:34.121Z,25.92
2022-10-18T04:44:05.724Z,25.92
2022-10-18T04:44:37.257Z,25.91
2022-10-18T04:45:08.821Z,25.92
2022-10-18T04:45:40.273Z,25.93
2022-10-18T04:46:11.973Z,25.91
2022-10-18T04:46:43.690Z,25.92
2022-10-18T04:47:15.248Z,25.93
2022-10-18T04:47:46.740Z,25.91
2022-10-18T04:48:18.223Z,25.93
2022-10-18T04:48:49.650Z,25.93
2022-10-18T04:49:21.133Z,25.92
2022-10-18T04:49:52.784Z,25.93
2022-10-18T04:50:24.409Z,25.92
2022-10-18T04:50:58.430Z,25.92
2022-10-18T04:51:29.935Z,25.92
2022-10-18T04:52:01.393Z,25.92
2022-10-18T04:52:32.792Z,25.92
2022-10-18T04:53:04.251Z,25.93
2022-10-18T04:53:35.649Z,25.92
2022-10-18T04:54:07.142Z,25.93
2022-10-18T04:54:38.662Z,25.91
2022-10-18T04:55:10.271Z,25.92
2022-10-18T04:55:41.886Z,25.91
2022-10-18T04:56:13.328Z,25.93
2022-10-18T04:56:44.718Z,25.91
2022-10-18T04:57:16.551Z,25.92
2022-10-18T04:57:48.039Z,25.93
2022-10-18T04:58:19.466Z,25.92
2022-10-18T04:58:50.879Z,25.92
2022-10-18T04:59:22.272Z,25.91
2022-10-18T04:59:53.697Z,25.92
2022-10-18T05:00:25.175Z,25.91
2022-10-18T05:00:56.725Z,25.93
2022-10-18T05:01:28.164Z,25.91
2022-10-18T05:01:59.765Z,25.91
2022-10-18T05:02:31.671Z,25.90
2022-10-18T05:03:03.260Z,25.91
2022-10-18T05:03:34.667Z,25.91
2022-10-18T05:04:06.081Z,25.91
2022-10-18T05:04:37.448Z,25.91
2022-10-18T05:05:11.661Z,25.91
2022-10-18T05:06:00.932Z,25.91
2022-10-18T05:06:33.663Z,25.91
2022-10-18T05:07:05.176Z,25.91
2022-10-18T05:07:36.580Z,25.91
2022-10-18T05:08:07.940Z,25.92
2022-10-18T05:08:39.309Z,25.92
2022-10-18T05:09:10.700Z,25.91
2022-10-18T05:09:42.166Z,25.92
2022-10-18T05:10:13.587Z,25.91
2022-10-18T05:10:44.984Z,25.90
2022-10-18T05:11:16.511Z,25.91
2022-10-18T05:11:47.923Z,25.91
2022-10-18T05:12:19.379Z,25.91
2022-10-18T05:12:50.793Z,25.91
2022-10-18T05:13:22.323Z,25.91
2022-10-18T05:13:53.800Z,25.92
2022-10-18T05:14:25.238Z,25.91
2022-10-18T05:14:56.915Z,25.92
2022-10-18T05:15:28.347Z,25.91
2022-10-18T05:15:59.767Z,25.91
2022-10-18T05:16:31.164Z,25.90
2022-10-18T05:17:02.636Z,25.91
2022-10-18T05:17:34.151Z,25.91
2022-10-18T05:18:05.561Z,25.90
2022-10-18T05:18:36.989Z,25.91
2022-10-18T05:19:08.447Z,25.91
2022-10-18T05:19:39.899Z,25.91
2022-10-18T05:20:11.347Z,25.91
2022-10-18T05:20:42.801Z,25.91
2022-10-18T05:21:14.211Z,25.91
2022-10-18T05:21:45.643Z,25.90
2022-10-18T05:22:17.101Z,25.90
2022-10-18T05:22:48.508Z,25.90
2022-10-18T05:23:20.060Z,25.91
2022-10-18T05:23:51.456Z,25.89
2022-10-18T05:24:25.478Z,25.89
2022-10-18T05:24:59.163Z,25.90
2022-10-18T05:25:30.658Z,25.90
2022-10-18T05:26:02.172Z,25.90
2022-10-18T05:26:33.740Z,25.92
2022-10-18T05:27:05.158Z,25.91
2022-10-18T05:27:36.597Z,25.90
2022-10-18T05:28:15.698Z,25.91
2022-10-18T05:28:52.920Z,25.91
2022-10-18T05:29:24.744Z,25.91
2022-10-18T05:29:57.938Z,25.91
2022-10-18T05:30:31.459Z,25.90
2022-10-18T05:31:02.917Z,25.91
2022-10-18T05:31:34.350Z,25.91
2022-10-18T05:32:05.741Z,25.92
2022-10-18T05:32:37.260Z,25.92
2022-10-18T05:33:08.720Z,25.92
2022-10-18T05:33:40.120Z,25.92
2022-10-18T05:34:11.580Z,25.91
2022-10-18T05:34:43.046Z,25.91
2022-10-18T05:35:14.484Z,25.92
2022-10-18T05:35:45.868Z,25.91
2022-10-18T05:36:17.276Z,25.92
2022-10-18T05:36:48.688Z,25.92
2022-10-18T05:37:22.026Z,25.91
2022-10-18T05:37:56.256Z,25.91
2022-10-18T05:38:27.842Z,25.90
2022-10-18T05:39:02.429Z,25.91
2022-10-18T05:39:39.269Z,25.92
2022-10-18T05:40:10.822Z,25.90
2022-10-18T05:40:42.207Z,25.90
2022-10-18T05:41:13.597Z,25.91
2022-10-18T05:41:45.059Z,25.92
2022-10-18T05:42:16.475Z,25.92
2022-10-18T05:42:47.964Z,25.90
2022-10-18T05:43:19.432Z,25.91
2022-10-18T05:43:50.963Z,25.92
2022-10-18T05:44:22.511Z,25.92
2022-10-18T05:44:54.054Z,25.91
2022-10-18T05:45:25.656Z,25.91
2022-10-18T05:45:57.160Z,25.91
2022-10-18T05:46:28.577Z,25.92
2022-10-18T05:47:00.087Z,25.91
2022-10-18T05:47:31.568Z,25.91
2022-10-18T05:48:03.035Z,25.91
2022-10-18T05:48:34.476Z,25.91
2022-10-18T05:49:05.943Z,25.90
2022-10-18T05:49:37.411Z,25.92
2022-10-18T05:50:08.887Z,25.91
2022-10-18T05:50:40.582Z,25.92
2022-10-18T05:51:12.037Z,25.91
2022-10-18T05:51:43.504Z,25.90
2022-10-18T05:52:14.980Z,25.91
2022-10-18T05:52:46.438Z,25.92
2022-10-18T05:53:35.637Z,25.91
2022-10-18T05:54:08.471Z,25.90
2022-10-18T05:54:39.931Z,25.92
2022-10-18T05:55:11.337Z,25.90
2022-10-18T05:55:42.861Z,25.91
2022-10-18T05:56:14.299Z,25.92
2022-10-18T05:56:45.704Z,25.92
2022-10-18T05:57:17.149Z,25.91
2022-10-18T05:57:48.594Z,25.91
2022-10-18T05:58:20.008Z,25.91
2022-10-18T05:58:51.599Z,25.91
2022-10-18T05:59:23.025Z,25.91
2022-10-18T05:59:54.412Z,25.90
2022-10-18T06:00:25.918Z,25.91
2022-10-18T06:00:57.272Z,25.91
2022-10-18T06:01:28.666Z,25.91
2022-10-18T06:02:00.063Z,25.91
2022-10-18T06:02:31.556Z,25.91
2022-10-18T06:03:03.154Z,25.89
2022-10-18T06:03:34.507Z,25.91
2022-10-18T06:04:06.098Z,25.90
2022-10-18T06:04:37.450Z,25.90
2022-10-18T06:05:08.910Z,25.91
2022-10-18T06:05:40.389Z,25.91
2022-10-18T06:06:11.783Z,25.91
2022-10-18T06:06:43.230Z,25.90
2022-10-18T06:07:14.625Z,25.92
2022-10-18T06:07:46.046Z,25.90
2022-10-18T06:08:17.437Z,25.90
2022-10-18T06:08:48.854Z,25.90
2022-10-18T06:09:20.330Z,25.92
2022-10-18T06:09:51.730Z,25.90
2022-10-18T06:10:23.126Z,25.91
2022-10-18T06:10:54.571Z,25.91
2022-10-18T06:11:25.982Z,25.92
2022-10-18T06:11:57.432Z,25.92
2022-10-18T06:12:28.854Z,25.91
2022-10-18T06:13:00.226Z,25.91
2022-10-18T06:13:32.570Z,25.92
2022-10-18T06:14:05.169Z,25.91
2022-10-18T06:14:36.673Z,25.90
2022-10-18T06:15:08.088Z,25.91
2022-10-18T06:15:39.524Z,25.92
2022-10-18T06:16:10.956Z,25.92
2022-10-18T06:16:42.388Z,25.90
2022-10-18T06:17:13.880Z,25.92
2022-10-18T06:17:45.385Z,25.91
2022-10-18T06:18:16.818Z,25.91
2022-10-18T06:18:48.207Z,25.91
2022-10-18T06:19:19.601Z,25.92
2022-10-18T06:19:51.074Z,25.90
2022-10-18T06:20:22.490Z,25.90
2022-10-18T06:20:53.903Z,25.91
2022-10-18T06:21:25.265Z,25.92
2022-10-18T06:21:56.649Z,25.91
2022-10-18T06:22:28.060Z,25.91
2022-10-18T06:22:59.541Z,25.91
2022-10-18T06:23:30.953Z,25.91
2022-10-18T06:24:02.441Z,25.90
2022-10-18T06:24:33.848Z,25.89
2022-10-18T06:25:05.357Z,25.90
2022-10-18T06:25:36.739Z,25.90
2022-10-18T06:26:08.201Z,25.91
2022-10-18T06:26:39.634Z,25.90
2022-10-18T06:27:11.150Z,25.90
2022-10-18T06:27:42.547Z,25.91
2022-10-18T06:28:13.945Z,25.89
2022-10-18T06:28:45.425Z,25.90
2022-10-18T06:29:16.917Z,25.92
2022-10-18T06:29:48.318Z,25.90
2022-10-18T06:30:19.762Z,25.90
2022-10-18T06:30:51.178Z,25.90
2022-10-18T06:31:22.627Z,25.89
2022-10-18T06:31:54.047Z,25.89
2022-10-18T06:32:25.453Z,25.90
2022-10-18T06:32:56.917Z,25.89
2022-10-18T06:33:28.360Z,25.90
2022-10-18T06:33:59.812Z,25.89
2022-10-18T06:34:31.200Z,25.90
2022-10-18T06:35:02.614Z,25.90
2022-10-18T06:35:34.170Z,25.90
2022-10-18T06:36:05.590Z,25.90
2022-10-18T06:36:36.994Z,25.90
2022-10-18T06:37:08.438Z,25.90
2022-10-18T06:37:39.927Z,25.89
2022-10-18T06:38:11.404Z,25.89
2022-10-18T06:38:42.859Z,25.89
2022-10-18T06:39:14.314Z,25.90
2022-10-18T06:39:45.723Z,25.90
2022-10-18T06:40:17.153Z,25.89
2022-10-18T06:40:48.715Z,25.90
2022-10-18T06:41:20.179Z,25.89
2022-10-18T06:41:51.626Z,25.89
2022-10-18T06:42:23.051Z,25.90
2022-10-18T06:43:00.449Z,25.90
2022-10-18T06:43:42.103Z,25.90
2022-10-18T06:44:13.532Z,25.89
2022-10-18T06:44:44.941Z,25.89
2022-10-18T06:45:16.343Z,25.89
2022-10-18T06:45:47.765Z,25.89
2022-10-18T06:46:19.225Z,25.88
2022-10-18T06:46:50.714Z,25.89
2022-10-18T06:47:22.098Z,25.89
2022-10-18T06:47:53.536Z,25.89
2022-10-18T06:48:24.936Z,25.89
2022-10-18T06:48:56.413Z,25.89
2022-10-18T06:49:27.827Z,25.89
2022-10-18T06:49:59.225Z,25.89
2022-10-18T06:50:30.716Z,25.90